sensor_id;sensor_type;location;lat;lon;timestamp;pressure;altitude;pressure_sealevel;temperature;humidity
818;BME280;391;51.052;6.954;2023-07-13T00:00:18;100859.31;;;18.65;55.75
818;BME280;391;51.052;6.954;2023-07-13T00:02:21;100849.63;;;18.61;55.95
818;BME280;391;51.052;6.954;2023-07-13T00:04:25;100865.47;;;18.61;55.81
818;BME280;391;51.052;6.954;2023-07-13T00:06:28;100857.59;;;18.54;56.20
818;BME280;391;51.052;6.954;2023-07-13T00:08:36;100863.72;;;18.62;55.91
818;BME280;391;51.052;6.954;2023-07-13T00:10:40;100853.19;;;18.53;56.26
818;BME280;391;51.052;6.954;2023-07-13T00:12:44;100806.53;;;18.29;56.56
818;BME280;391;51.052;6.954;2023-07-13T00:14:47;100857.53;;;18.69;56.12
818;BME280;391;51.052;6.954;2023-07-13T00:16:51;100858.44;;;18.59;56.67
818;BME280;391;51.052;6.954;2023-07-13T00:18:54;100859.31;;;18.62;56.79
818;BME280;391;51.052;6.954;2023-07-13T00:20:58;100862.84;;;18.43;57.73
818;BME280;391;51.052;6.954;2023-07-13T00:23:07;100861.94;;;18.61;57.59
818;BME280;391;51.052;6.954;2023-07-13T00:25:12;100860.19;;;18.40;57.89
818;BME280;391;51.052;6.954;2023-07-13T00:27:19;100868.13;;;18.28;58.28
818;BME280;391;51.052;6.954;2023-07-13T00:29:22;100869.88;;;18.32;58.30
818;BME280;391;51.052;6.954;2023-07-13T00:31:26;100847.00;;;18.34;58.25
818;BME280;391;51.052;6.954;2023-07-13T00:33:29;100859.34;;;18.27;58.39
818;BME280;391;51.052;6.954;2023-07-13T00:35:34;100861.97;;;18.29;58.89
818;BME280;391;51.052;6.954;2023-07-13T00:37:37;100861.09;;;18.34;58.65
818;BME280;391;51.052;6.954;2023-07-13T00:39:41;100854.94;;;18.14;59.51
818;BME280;391;51.052;6.954;2023-07-13T00:41:46;100851.41;;;18.32;59.18
818;BME280;391;51.052;6.954;2023-07-13T00:43:49;100854.91;;;18.16;59.34
818;BME280;391;51.052;6.954;2023-07-13T00:46:21;100846.13;;;18.02;59.43
818;BME280;391;51.052;6.954;2023-07-13T00:48:29;100856.72;;;18.09;60.04
818;BME280;391;51.052;6.954;2023-07-13T00:50:32;100859.34;;;18.11;60.18
818;BME280;391;51.052;6.954;2023-07-13T00:52:38;100864.63;;;18.15;59.97
818;BME280;391;51.052;6.954;2023-07-13T00:54:46;100855.81;;;18.10;59.92
818;BME280;391;51.052;6.954;2023-07-13T00:56:53;100859.34;;;18.02;60.55
818;BME280;391;51.052;6.954;2023-07-13T00:58:59;100849.66;;;17.97;60.62
818;BME280;391;51.052;6.954;2023-07-13T01:01:03;100849.66;;;18.01;60.60
818;BME280;391;51.052;6.954;2023-07-13T01:03:07;100854.06;;;17.89;61.22
818;BME280;391;51.052;6.954;2023-07-13T01:05:13;100852.25;;;17.87;61.06
818;BME280;391;51.052;6.954;2023-07-13T01:07:18;100847.00;;;17.85;60.93
818;BME280;391;51.052;6.954;2023-07-13T01:09:21;100841.72;;;17.85;61.22
818;BME280;391;51.052;6.954;2023-07-13T01:11:26;100854.06;;;17.83;60.66
818;BME280;391;51.052;6.954;2023-07-13T01:13:32;100845.25;;;17.84;60.86
818;BME280;391;51.052;6.954;2023-07-13T01:15:39;100841.72;;;17.87;60.57
818;BME280;391;51.052;6.954;2023-07-13T01:17:42;100839.97;;;17.83;60.88
818;BME280;391;51.052;6.954;2023-07-13T01:19:46;100848.78;;;17.98;60.42
818;BME280;391;51.052;6.954;2023-07-13T01:21:52;100844.38;;;17.91;60.96
818;BME280;391;51.052;6.954;2023-07-13T01:23:55;100848.75;;;17.97;60.86
818;BME280;391;51.052;6.954;2023-07-13T01:25:59;100844.38;;;17.82;61.27
818;BME280;391;51.052;6.954;2023-07-13T01:28:05;100850.50;;;17.81;61.37
818;BME280;391;51.052;6.954;2023-07-13T01:30:13;100858.44;;;17.77;61.73
818;BME280;391;51.052;6.954;2023-07-13T01:32:20;100853.13;;;17.63;62.31
818;BME280;391;51.052;6.954;2023-07-13T01:34:25;100856.63;;;17.62;62.51
818;BME280;391;51.052;6.954;2023-07-13T01:36:28;100847.78;;;17.53;62.54
818;BME280;391;51.052;6.954;2023-07-13T01:38:34;100855.72;;;17.54;62.79
818;BME280;391;51.052;6.954;2023-07-13T01:40:38;100853.97;;;17.52;62.71
818;BME280;391;51.052;6.954;2023-07-13T01:42:41;100846.88;;;17.43;62.98
818;BME280;391;51.052;6.954;2023-07-13T01:44:44;100860.06;;;17.38;63.50
818;BME280;391;51.052;6.954;2023-07-13T01:46:48;100843.34;;;17.29;63.53
818;BME280;391;51.052;6.954;2023-07-13T01:48:52;100839.84;;;17.36;63.46
818;BME280;391;51.052;6.954;2023-07-13T01:50:55;100848.63;;;17.32;63.84
818;BME280;391;51.052;6.954;2023-07-13T01:52:59;100847.72;;;17.30;63.94
818;BME280;391;51.052;6.954;2023-07-13T01:55:06;100858.28;;;17.28;63.83
818;BME280;391;51.052;6.954;2023-07-13T01:57:09;100855.63;;;17.25;64.04
818;BME280;391;51.052;6.954;2023-07-13T01:59:12;100851.19;;;17.17;64.32
818;BME280;391;51.052;6.954;2023-07-13T02:01:16;100839.78;;;17.16;64.15
818;BME280;391;51.052;6.954;2023-07-13T02:03:20;100841.56;;;17.25;64.34
818;BME280;391;51.052;6.954;2023-07-13T02:05:23;100850.41;;;17.42;63.60
818;BME280;391;51.052;6.954;2023-07-13T02:07:27;100847.69;;;17.15;64.71
818;BME280;391;51.052;6.954;2023-07-13T02:09:29;100853.84;;;17.15;64.74
818;BME280;391;51.052;6.954;2023-07-13T02:11:35;100863.50;;;17.21;64.47
818;BME280;391;51.052;6.954;2023-07-13T02:13:39;100860.91;;;17.25;64.50
818;BME280;391;51.052;6.954;2023-07-13T02:15:42;100855.59;;;17.16;64.79
818;BME280;391;51.052;6.954;2023-07-13T02:17:46;100863.50;;;17.21;64.82
818;BME280;391;51.052;6.954;2023-07-13T02:19:50;100865.28;;;17.29;64.75
818;BME280;391;51.052;6.954;2023-07-13T02:21:52;100853.91;;;17.32;64.90
818;BME280;391;51.052;6.954;2023-07-13T02:23:55;100847.72;;;17.22;64.86
818;BME280;391;51.052;6.954;2023-07-13T02:26:01;100863.53;;;17.28;65.12
818;BME280;391;51.052;6.954;2023-07-13T02:28:07;100865.28;;;17.26;65.48
818;BME280;391;51.052;6.954;2023-07-13T02:30:11;100861.75;;;17.18;65.64
818;BME280;391;51.052;6.954;2023-07-13T02:32:13;100863.47;;;17.12;66.03
818;BME280;391;51.052;6.954;2023-07-13T02:34:17;100856.50;;;17.20;66.13
818;BME280;391;51.052;6.954;2023-07-13T02:36:20;100857.38;;;17.25;65.74
818;BME280;391;51.052;6.954;2023-07-13T02:38:24;100858.22;;;17.13;66.03
818;BME280;391;51.052;6.954;2023-07-13T02:40:28;100859.91;;;17.02;66.61
818;BME280;391;51.052;6.954;2023-07-13T02:42:31;100860.75;;;16.93;67.09
818;BME280;391;51.052;6.954;2023-07-13T02:44:37;100865.13;;;16.94;66.65
818;BME280;391;51.052;6.954;2023-07-13T02:46:40;100856.38;;;16.99;66.86
818;BME280;391;51.052;6.954;2023-07-13T02:48:44;100859.88;;;16.93;67.31
818;BME280;391;51.052;6.954;2023-07-13T02:50:50;100866.94;;;17.00;66.98
818;BME280;391;51.052;6.954;2023-07-13T02:52:54;100872.09;;;16.80;67.86
818;BME280;391;51.052;6.954;2023-07-13T02:54:58;100865.09;;;16.81;67.59
818;BME280;391;51.052;6.954;2023-07-13T02:57:02;100861.56;;;16.82;67.76
818;BME280;391;51.052;6.954;2023-07-13T02:59:05;100853.78;;;17.05;66.59
818;BME280;391;51.052;6.954;2023-07-13T03:01:11;100865.19;;;17.01;66.74
818;BME280;391;51.052;6.954;2023-07-13T03:03:16;100866.03;;;16.90;67.06
818;BME280;391;51.052;6.954;2023-07-13T03:05:19;100871.28;;;16.87;67.04
818;BME280;391;51.052;6.954;2023-07-13T03:07:23;100874.75;;;16.88;67.47
818;BME280;391;51.052;6.954;2023-07-13T03:09:28;100878.38;;;17.01;67.74
818;BME280;391;51.052;6.954;2023-07-13T03:11:34;100874.75;;;16.80;67.75
818;BME280;391;51.052;6.954;2023-07-13T03:13:47;100872.09;;;16.80;67.76
818;BME280;391;51.052;6.954;2023-07-13T03:15:51;100878.19;;;16.73;68.25
818;BME280;391;51.052;6.954;2023-07-13T03:17:55;100876.44;;;16.72;67.97
818;BME280;391;51.052;6.954;2023-07-13T03:19:58;100872.00;;;16.67;67.53
818;BME280;391;51.052;6.954;2023-07-13T03:22:03;100876.41;;;16.65;67.45
818;BME280;391;51.052;6.954;2023-07-13T03:24:08;100871.06;;;16.57;67.73
818;BME280;391;51.052;6.954;2023-07-13T03:26:15;100876.34;;;16.56;67.79
818;BME280;391;51.052;6.954;2023-07-13T03:28:18;100890.38;;;16.55;67.88
818;BME280;391;51.052;6.954;2023-07-13T03:30:22;100878.03;;;16.52;68.16
818;BME280;391;51.052;6.954;2023-07-13T03:32:26;100885.91;;;16.49;67.81
818;BME280;391;51.052;6.954;2023-07-13T03:34:31;100889.44;;;16.54;67.59
818;BME280;391;51.052;6.954;2023-07-13T03:36:35;100888.56;;;16.52;67.91
818;BME280;391;51.052;6.954;2023-07-13T03:38:42;100898.19;;;16.50;67.55
818;BME280;391;51.052;6.954;2023-07-13T03:40:46;100898.16;;;16.47;67.73
818;BME280;391;51.052;6.954;2023-07-13T03:42:49;100893.78;;;16.43;68.02
818;BME280;391;51.052;6.954;2023-07-13T03:44:53;100900.75;;;16.41;68.12
818;BME280;391;51.052;6.954;2023-07-13T03:46:57;100879.53;;;16.21;68.48
818;BME280;391;51.052;6.954;2023-07-13T03:49:01;100893.66;;;16.34;68.04
818;BME280;391;51.052;6.954;2023-07-13T03:51:06;100906.84;;;16.35;68.38
818;BME280;391;51.052;6.954;2023-07-13T03:53:10;100903.34;;;16.33;68.29
818;BME280;391;51.052;6.954;2023-07-13T03:55:13;100904.19;;;16.34;68.25
818;BME280;391;51.052;6.954;2023-07-13T03:57:17;100913.88;;;16.35;68.21
818;BME280;391;51.052;6.954;2023-07-13T03:59:21;100918.25;;;16.37;68.51
818;BME280;391;51.052;6.954;2023-07-13T04:01:26;100913.78;;;16.26;68.63
818;BME280;391;51.052;6.954;2023-07-13T04:03:30;100912.03;;;16.23;68.85
818;BME280;391;51.052;6.954;2023-07-13T04:05:35;100907.66;;;16.25;69.00
818;BME280;391;51.052;6.954;2023-07-13T04:07:40;100914.72;;;16.29;68.85
818;BME280;391;51.052;6.954;2023-07-13T04:09:43;100914.69;;;16.31;68.85
818;BME280;391;51.052;6.954;2023-07-13T04:11:47;100910.31;;;16.28;68.89
818;BME280;391;51.052;6.954;2023-07-13T04:13:50;100909.41;;;16.26;69.13
818;BME280;391;51.052;6.954;2023-07-13T04:15:55;100918.16;;;16.21;69.37
818;BME280;391;51.052;6.954;2023-07-13T04:18:00;100918.19;;;16.27;69.32
818;BME280;391;51.052;6.954;2023-07-13T04:20:04;100921.72;;;16.29;69.35
818;BME280;391;51.052;6.954;2023-07-13T04:22:08;100921.75;;;16.35;69.83
818;BME280;391;51.052;6.954;2023-07-13T04:24:13;100928.69;;;16.25;70.00
818;BME280;391;51.052;6.954;2023-07-13T04:26:16;100922.56;;;16.28;69.90
818;BME280;391;51.052;6.954;2023-07-13T04:28:24;100920.81;;;16.27;69.84
818;BME280;391;51.052;6.954;2023-07-13T04:30:28;100928.75;;;16.31;69.88
818;BME280;391;51.052;6.954;2023-07-13T04:32:31;100929.69;;;16.36;70.11
818;BME280;391;51.052;6.954;2023-07-13T04:34:35;100928.84;;;16.42;69.57
818;BME280;391;51.052;6.954;2023-07-13T04:36:37;100931.47;;;16.43;69.39
818;BME280;391;51.052;6.954;2023-07-13T04:38:41;100927.06;;;16.41;69.29
818;BME280;391;51.052;6.954;2023-07-13T04:40:46;100912.22;;;16.48;69.38
818;BME280;391;51.052;6.954;2023-07-13T04:42:50;100921.84;;;16.47;69.54
818;BME280;391;51.052;6.954;2023-07-13T04:44:53;100922.72;;;16.43;69.80
818;BME280;391;51.052;6.954;2023-07-13T04:46:57;100927.13;;;16.50;69.63
818;BME280;391;51.052;6.954;2023-07-13T04:49:00;100928.00;;;16.48;70.00
818;BME280;391;51.052;6.954;2023-07-13T04:51:06;100915.63;;;16.37;69.96
818;BME280;391;51.052;6.954;2023-07-13T04:53:09;100927.16;;;16.53;69.84
818;BME280;391;51.052;6.954;2023-07-13T04:55:12;100934.16;;;16.48;70.28
818;BME280;391;51.052;6.954;2023-07-13T04:57:17;100929.84;;;16.55;69.86
818;BME280;391;51.052;6.954;2023-07-13T04:59:21;100942.19;;;16.62;69.91
818;BME280;391;51.052;6.954;2023-07-13T05:01:24;100934.19;;;16.54;69.85
818;BME280;391;51.052;6.954;2023-07-13T05:03:27;100935.06;;;16.53;69.99
818;BME280;391;51.052;6.954;2023-07-13T05:05:30;100935.94;;;16.52;70.37
818;BME280;391;51.052;6.954;2023-07-13T05:07:34;100936.00;;;16.57;70.20
818;BME280;391;51.052;6.954;2023-07-13T05:09:38;100943.00;;;16.56;70.41
818;BME280;391;51.052;6.954;2023-07-13T05:11:43;100951.06;;;16.71;69.80
818;BME280;391;51.052;6.954;2023-07-13T05:13:48;100941.38;;;16.70;70.09
818;BME280;391;51.052;6.954;2023-07-13T05:15:57;100940.53;;;16.74;69.96
818;BME280;391;51.052;6.954;2023-07-13T05:18:01;100948.47;;;16.80;70.26
818;BME280;391;51.052;6.954;2023-07-13T05:20:05;100945.09;;;17.00;69.36
818;BME280;391;51.052;6.954;2023-07-13T05:22:09;100953.91;;;17.03;69.36
818;BME280;391;51.052;6.954;2023-07-13T05:24:12;100945.84;;;16.80;69.99
818;BME280;391;51.052;6.954;2023-07-13T05:26:26;100952.84;;;16.77;70.62
818;BME280;391;51.052;6.954;2023-07-13T05:28:31;100959.03;;;16.85;70.70
818;BME280;391;51.052;6.954;2023-07-13T05:30:36;100965.22;;;16.94;70.21
818;BME280;391;51.052;6.954;2023-07-13T05:32:39;100877.09;;;16.47;70.51
818;BME280;391;51.052;6.954;2023-07-13T05:34:43;100963.50;;;16.93;70.20
818;BME280;391;51.052;6.954;2023-07-13T05:36:47;100967.00;;;16.91;70.58
818;BME280;391;51.052;6.954;2023-07-13T05:38:51;100962.56;;;16.88;71.02
818;BME280;391;51.052;6.954;2023-07-13T05:40:55;100966.16;;;17.00;70.36
818;BME280;391;51.052;6.954;2023-07-13T05:42:59;100964.44;;;17.05;70.37
818;BME280;391;51.052;6.954;2023-07-13T05:45:02;100962.69;;;17.07;70.52
818;BME280;391;51.052;6.954;2023-07-13T05:47:07;100975.91;;;17.17;70.78
818;BME280;391;51.052;6.954;2023-07-13T05:49:10;100979.47;;;17.19;70.76
818;BME280;391;51.052;6.954;2023-07-13T05:51:14;100984.81;;;17.36;69.86
818;BME280;391;51.052;6.954;2023-07-13T05:53:18;100975.22;;;17.50;69.88
818;BME280;391;51.052;6.954;2023-07-13T05:55:22;100979.72;;;17.68;69.07
818;BME280;391;51.052;6.954;2023-07-13T05:57:25;100973.50;;;17.55;69.57
818;BME280;391;51.052;6.954;2023-07-13T05:59:28;100963.75;;;17.40;70.29
818;BME280;391;51.052;6.954;2023-07-13T06:01:32;100985.78;;;17.53;70.24
818;BME280;391;51.052;6.954;2023-07-13T06:03:37;100986.75;;;17.66;70.38
818;BME280;391;51.052;6.954;2023-07-13T06:05:41;100915.28;;;17.14;70.50
818;BME280;391;51.052;6.954;2023-07-13T06:07:45;100985.84;;;17.59;70.37
818;BME280;391;51.052;6.954;2023-07-13T06:09:48;100923.22;;;17.16;70.84
818;BME280;391;51.052;6.954;2023-07-13T06:11:51;100986.66;;;17.52;71.42
818;BME280;391;51.052;6.954;2023-07-13T06:13:56;100988.44;;;17.55;70.95
818;BME280;391;51.052;6.954;2023-07-13T06:15:59;100993.66;;;17.48;71.54
818;BME280;391;51.052;6.954;2023-07-13T06:18:02;100998.00;;;17.37;72.21
818;BME280;391;51.052;6.954;2023-07-13T06:20:07;100996.28;;;17.44;72.08
818;BME280;391;51.052;6.954;2023-07-13T06:22:12;100993.69;;;17.50;72.16
818;BME280;391;51.052;6.954;2023-07-13T06:24:15;101000.75;;;17.54;71.92
818;BME280;391;51.052;6.954;2023-07-13T06:26:18;101001.69;;;17.68;71.32
818;BME280;391;51.052;6.954;2023-07-13T06:28:22;101011.47;;;17.92;70.73
818;BME280;391;51.052;6.954;2023-07-13T06:30:26;100933.84;;;17.31;71.38
818;BME280;391;51.052;6.954;2023-07-13T06:32:29;101006.13;;;17.71;71.20
818;BME280;391;51.052;6.954;2023-07-13T06:34:33;101002.50;;;17.55;71.93
818;BME280;391;51.052;6.954;2023-07-13T06:36:37;101000.78;;;17.62;71.79
818;BME280;391;51.052;6.954;2023-07-13T06:38:41;101003.41;;;17.59;71.86
818;BME280;391;51.052;6.954;2023-07-13T06:40:45;101010.53;;;17.76;71.47
818;BME280;391;51.052;6.954;2023-07-13T06:42:48;101010.50;;;17.70;72.22
818;BME280;391;51.052;6.954;2023-07-13T06:44:52;101015.88;;;17.90;71.57
818;BME280;391;51.052;6.954;2023-07-13T06:46:55;101007.06;;;17.94;71.08
818;BME280;391;51.052;6.954;2023-07-13T06:48:59;101005.28;;;17.87;71.40
818;BME280;391;51.052;6.954;2023-07-13T06:51:02;100992.09;;;17.85;71.03
818;BME280;391;51.052;6.954;2023-07-13T06:53:07;101017.63;;;17.97;70.64
818;BME280;391;51.052;6.954;2023-07-13T06:55:11;101015.84;;;17.82;71.30
818;BME280;391;51.052;6.954;2023-07-13T06:57:15;101022.91;;;17.95;71.32
818;BME280;391;51.052;6.954;2023-07-13T06:59:19;101020.28;;;18.06;70.75
818;BME280;391;51.052;6.954;2023-07-13T07:01:22;101008.00;;;18.05;71.00
818;BME280;391;51.052;6.954;2023-07-13T07:03:26;101016.78;;;18.04;71.03
818;BME280;391;51.052;6.954;2023-07-13T07:05:29;101018.53;;;18.01;71.70
818;BME280;391;51.052;6.954;2023-07-13T07:07:33;101027.38;;;18.21;71.18
818;BME280;391;51.052;6.954;2023-07-13T07:09:38;101029.19;;;18.34;70.07
818;BME280;391;51.052;6.954;2023-07-13T07:11:42;101021.25;;;18.28;70.46
818;BME280;391;51.052;6.954;2023-07-13T07:14:03;101033.63;;;18.50;69.62
818;BME280;391;51.052;6.954;2023-07-13T07:16:07;101041.56;;;18.58;69.47
818;BME280;391;51.052;6.954;2023-07-13T07:18:10;101039.81;;;18.64;69.24
818;BME280;391;51.052;6.954;2023-07-13T07:20:14;101039.81;;;18.67;68.51
818;BME280;391;51.052;6.954;2023-07-13T07:22:18;101039.81;;;18.63;69.16
818;BME280;391;51.052;6.954;2023-07-13T07:24:22;101041.56;;;18.74;69.22
818;BME280;391;51.052;6.954;2023-07-13T07:26:26;101040.69;;;18.84;68.95
818;BME280;391;51.052;6.954;2023-07-13T07:28:50;101038.94;;;18.73;69.62
818;BME280;391;51.052;6.954;2023-07-13T07:31:13;101036.28;;;18.65;69.39
818;BME280;391;51.052;6.954;2023-07-13T07:33:19;101051.28;;;18.69;69.32
818;BME280;391;51.052;6.954;2023-07-13T07:35:23;101040.69;;;18.53;70.02
818;BME280;391;51.052;6.954;2023-07-13T07:37:26;101030.94;;;18.45;70.19
818;BME280;391;51.052;6.954;2023-07-13T07:39:32;101043.31;;;18.51;70.28
818;BME280;391;51.052;6.954;2023-07-13T07:41:37;101044.16;;;18.48;70.87
818;BME280;391;51.052;6.954;2023-07-13T07:43:43;101048.59;;;18.54;70.84
818;BME280;391;51.052;6.954;2023-07-13T07:45:46;101039.81;;;18.60;70.66
818;BME280;391;51.052;6.954;2023-07-13T07:47:50;101035.34;;;18.48;70.47
818;BME280;391;51.052;6.954;2023-07-13T07:49:53;101049.50;;;18.56;70.48
818;BME280;391;51.052;6.954;2023-07-13T07:51:57;101045.97;;;18.60;70.48
818;BME280;391;51.052;6.954;2023-07-13T07:54:00;101046.84;;;18.53;70.74
818;BME280;391;51.052;6.954;2023-07-13T07:56:04;101050.38;;;18.51;70.55
818;BME280;391;51.052;6.954;2023-07-13T07:58:28;101045.97;;;18.53;70.48
818;BME280;391;51.052;6.954;2023-07-13T08:00:35;101052.13;;;18.59;70.84
818;BME280;391;51.052;6.954;2023-07-13T08:02:41;101047.72;;;18.64;70.77
818;BME280;391;51.052;6.954;2023-07-13T08:05:04;101040.69;;;18.72;70.46
818;BME280;391;51.052;6.954;2023-07-13T08:07:10;101047.72;;;18.73;70.53
818;BME280;391;51.052;6.954;2023-07-13T08:09:14;101053.00;;;18.73;70.33
818;BME280;391;51.052;6.954;2023-07-13T08:11:17;101049.50;;;18.71;69.62
818;BME280;391;51.052;6.954;2023-07-13T08:13:24;101049.50;;;18.74;70.08
818;BME280;391;51.052;6.954;2023-07-13T08:15:28;101049.50;;;18.89;69.83
818;BME280;391;51.052;6.954;2023-07-13T08:17:32;101051.25;;;18.93;69.37
818;BME280;391;51.052;6.954;2023-07-13T08:19:35;101032.78;;;18.92;69.44
818;BME280;391;51.052;6.954;2023-07-13T08:21:41;101045.97;;;18.99;70.01
818;BME280;391;51.052;6.954;2023-07-13T08:23:45;101009.00;;;18.81;69.85
818;BME280;391;51.052;6.954;2023-07-13T08:25:50;101042.44;;;19.02;69.83
818;BME280;391;51.052;6.954;2023-07-13T08:27:54;101041.59;;;19.01;69.92
818;BME280;391;51.052;6.954;2023-07-13T08:29:58;101040.69;;;19.02;69.72
818;BME280;391;51.052;6.954;2023-07-13T08:32:05;101038.03;;;19.09;69.75
818;BME280;391;51.052;6.954;2023-07-13T08:34:11;101046.88;;;19.08;70.07
818;BME280;391;51.052;6.954;2023-07-13T08:36:19;101041.56;;;19.08;69.92
818;BME280;391;51.052;6.954;2023-07-13T08:38:22;101043.28;;;19.34;69.08
818;BME280;391;51.052;6.954;2023-07-13T08:40:27;101051.22;;;19.31;68.46
818;BME280;391;51.052;6.954;2023-07-13T08:42:33;101043.28;;;19.34;68.79
818;BME280;391;51.052;6.954;2023-07-13T08:44:48;101041.53;;;19.33;68.83
818;BME280;391;51.052;6.954;2023-07-13T08:46:55;101041.53;;;19.39;68.02
818;BME280;391;51.052;6.954;2023-07-13T08:49:04;101039.81;;;19.40;67.64
818;BME280;391;51.052;6.954;2023-07-13T08:51:16;101019.47;;;19.39;68.10
818;BME280;391;51.052;6.954;2023-07-13T08:53:29;101033.53;;;19.64;67.73
818;BME280;391;51.052;6.954;2023-07-13T08:55:35;101039.72;;;19.60;67.47
818;BME280;391;51.052;6.954;2023-07-13T08:57:42;101032.66;;;19.60;67.11
818;BME280;391;51.052;6.954;2023-07-13T08:59:47;101029.97;;;19.75;66.32
818;BME280;391;51.052;6.954;2023-07-13T09:02:00;101000.09;;;19.52;66.62
818;BME280;391;51.052;6.954;2023-07-13T09:04:14;101041.41;;;19.83;66.68
818;BME280;391;51.052;6.954;2023-07-13T09:06:23;101030.81;;;19.86;65.99
818;BME280;391;51.052;6.954;2023-07-13T09:08:42;101038.78;;;19.77;66.61
818;BME280;391;51.052;6.954;2023-07-13T09:10:57;101037.88;;;19.83;66.02
818;BME280;391;51.052;6.954;2023-07-13T09:13:16;101039.59;;;19.96;66.10
818;BME280;391;51.052;6.954;2023-07-13T09:15:27;101044.81;;;20.11;65.69
818;BME280;391;51.052;6.954;2023-07-13T09:17:35;101035.97;;;20.15;65.50
818;BME280;391;51.052;6.954;2023-07-13T09:19:47;101039.47;;;20.29;65.14
818;BME280;391;51.052;6.954;2023-07-13T09:21:52;101033.25;;;20.32;64.48
818;BME280;391;51.052;6.954;2023-07-13T09:24:01;101021.81;;;20.19;64.51
818;BME280;391;51.052;6.954;2023-07-13T09:26:23;101035.94;;;20.17;64.98
818;BME280;391;51.052;6.954;2023-07-13T09:28:29;101016.56;;;20.13;64.43
818;BME280;391;51.052;6.954;2023-07-13T09:30:37;101035.91;;;20.27;64.49
818;BME280;391;51.052;6.954;2023-07-13T09:32:50;101042.03;;;20.37;64.38
818;BME280;391;51.052;6.954;2023-07-13T09:34:56;101042.03;;;20.40;64.01
818;BME280;391;51.052;6.954;2023-07-13T09:36:59;101041.19;;;20.32;64.52
818;BME280;391;51.052;6.954;2023-07-13T09:39:09;101045.53;;;20.43;64.29
818;BME280;391;51.052;6.954;2023-07-13T09:41:19;101051.75;;;20.41;63.92
818;BME280;391;51.052;6.954;2023-07-13T09:43:26;101043.69;;;20.56;63.27
818;BME280;391;51.052;6.954;2023-07-13T09:45:33;101039.31;;;20.46;63.68
818;BME280;391;51.052;6.954;2023-07-13T09:47:39;101037.53;;;20.51;63.03
818;BME280;391;51.052;6.954;2023-07-13T09:49:43;101045.41;;;20.58;62.25
818;BME280;391;51.052;6.954;2023-07-13T09:51:57;101053.22;;;20.83;61.66
818;BME280;391;51.052;6.954;2023-07-13T09:54:01;101051.41;;;20.85;61.57
818;BME280;391;51.052;6.954;2023-07-13T09:56:19;101057.53;;;20.91;60.61
818;BME280;391;51.052;6.954;2023-07-13T09:58:24;101062.78;;;21.02;60.78
818;BME280;391;51.052;6.954;2023-07-13T10:00:29;101043.44;;;20.88;60.18
818;BME280;391;51.052;6.954;2023-07-13T10:02:34;101058.47;;;20.84;60.43
818;BME280;391;51.052;6.954;2023-07-13T10:04:38;101058.56;;;20.77;60.99
818;BME280;391;51.052;6.954;2023-07-13T10:06:44;101059.31;;;20.92;60.25
818;BME280;391;51.052;6.954;2023-07-13T10:08:50;101066.34;;;20.99;60.58
818;BME280;391;51.052;6.954;2023-07-13T10:10:58;101060.97;;;21.05;59.82
818;BME280;391;51.052;6.954;2023-07-13T10:13:02;101065.09;;;21.40;58.05
818;BME280;391;51.052;6.954;2023-07-13T10:15:15;101077.72;;;21.14;59.23
818;BME280;391;51.052;6.954;2023-07-13T10:17:29;101068.59;;;21.43;58.06
818;BME280;391;51.052;6.954;2023-07-13T10:19:35;101065.81;;;21.55;58.33
818;BME280;391;51.052;6.954;2023-07-13T10:21:43;101074.28;;;21.91;57.08
818;BME280;391;51.052;6.954;2023-07-13T10:23:55;101073.34;;;21.93;57.21
818;BME280;391;51.052;6.954;2023-07-13T10:26:00;101067.34;;;21.75;57.32
818;BME280;391;51.052;6.954;2023-07-13T10:28:19;101075.50;;;21.59;57.45
818;BME280;391;51.052;6.954;2023-07-13T10:30:28;101079.81;;;21.68;57.20
818;BME280;391;51.052;6.954;2023-07-13T10:32:33;101083.94;;;21.96;56.36
818;BME280;391;51.052;6.954;2023-07-13T10:34:37;101067.88;;;22.05;55.58
818;BME280;391;51.052;6.954;2023-07-13T10:36:43;101074.88;;;22.12;56.04
818;BME280;391;51.052;6.954;2023-07-13T10:38:51;101075.31;;;22.45;54.08
818;BME280;391;51.052;6.954;2023-07-13T10:41:01;101073.56;;;22.45;54.05
818;BME280;391;51.052;6.954;2023-07-13T10:43:18;101086.03;;;22.39;54.65
818;BME280;391;51.052;6.954;2023-07-13T10:45:24;101081.03;;;22.16;54.78
818;BME280;391;51.052;6.954;2023-07-13T10:47:28;101077.69;;;22.00;55.68
818;BME280;391;51.052;6.954;2023-07-13T10:49:32;101077.31;;;22.28;54.89
818;BME280;391;51.052;6.954;2023-07-13T10:51:37;101078.13;;;22.34;54.82
818;BME280;391;51.052;6.954;2023-07-13T10:53:40;101086.44;;;22.08;54.94
818;BME280;391;51.052;6.954;2023-07-13T10:55:58;101082.28;;;21.85;54.61
818;BME280;391;51.052;6.954;2023-07-13T10:58:12;101089.38;;;21.84;54.20
818;BME280;391;51.052;6.954;2023-07-13T11:00:18;101083.25;;;21.79;54.04
818;BME280;391;51.052;6.954;2023-07-13T11:02:25;101075.25;;;21.82;54.42
818;BME280;391;51.052;6.954;2023-07-13T11:04:40;101083.06;;;21.97;53.59
818;BME280;391;51.052;6.954;2023-07-13T11:06:47;101077.09;;;21.76;54.05
818;BME280;391;51.052;6.954;2023-07-13T11:08:54;101074.69;;;21.51;54.81
818;BME280;391;51.052;6.954;2023-07-13T11:10:59;101081.59;;;21.69;55.27
818;BME280;391;51.052;6.954;2023-07-13T11:13:03;101062.13;;;21.67;55.31
818;BME280;391;51.052;6.954;2023-07-13T11:15:11;101089.47;;;21.75;53.94
818;BME280;391;51.052;6.954;2023-07-13T11:17:34;101067.56;;;21.56;54.17
818;BME280;391;51.052;6.954;2023-07-13T11:19:41;101092.25;;;21.66;54.15
818;BME280;391;51.052;6.954;2023-07-13T11:22:03;101087.88;;;21.57;54.21
818;BME280;391;51.052;6.954;2023-07-13T11:24:15;101056.09;;;21.53;54.59
818;BME280;391;51.052;6.954;2023-07-13T11:26:39;101079.75;;;21.76;54.36
818;BME280;391;51.052;6.954;2023-07-13T11:28:48;101083.13;;;21.91;53.10
818;BME280;391;51.052;6.954;2023-07-13T11:31:13;101079.59;;;21.89;53.24
818;BME280;391;51.052;6.954;2023-07-13T11:33:20;101073.19;;;22.05;54.03